Time;durP1;ratioP1;P1;durP2;ratioP2;P2;SDS_P1;SDS_P2;PMS_P1;PMS_P2;Temp;Humidity;BMP_temperature;BMP_pressure;BME280_temperature;BME280_humidity;BME280_pressure;Samples;Min_cycle;Max_cycle;Signal;HPM_P1;HPM_P2
2021/12/16 08:02:37;;;;;;;80.55;33.60;;;6.60;99.90;;;;;;4999731;28;20181;-86
2021/12/16 08:05:06;;;;;;;75.22;32.72;;;6.60;99.90;;;;;;4916340;29;20134;-85
2021/12/16 08:07:35;;;;;;;72.53;31.67;;;6.60;99.90;;;;;;4946957;28;20043;-84
2021/12/16 08:10:03;;;;;;;84.15;34.08;;;6.50;99.90;;;;;;4947948;28;20504;-84
2021/12/16 08:12:45;;;;;;;116.35;42.92;;;6.50;99.90;;;;;;4843144;29;20053;-86
2021/12/16 08:15:14;;;;;;;106.85;39.92;;;6.50;99.90;;;;;;4834155;29;20516;-86
2021/12/16 08:17:44;;;;;;;108.78;40.85;;;6.50;99.90;;;;;;4880381;29;20106;-86
2021/12/16 08:20:20;;;;;;;134.52;43.88;;;6.50;99.90;;;;;;4912365;29;20472;-86
2021/12/16 08:22:48;;;;;;;133.98;40.78;;;6.50;99.90;;;;;;4926497;29;20047;-86
2021/12/16 08:25:21;;;;;;;90.75;38.88;;;6.50;99.90;;;;;;4912693;29;20039;-85
2021/12/16 08:27:52;;;;;;;90.85;37.58;;;6.50;99.90;;;;;;4946042;28;20035;-84
2021/12/16 08:30:20;;;;;;;146.55;49.38;;;6.50;99.90;;;;;;4933081;29;20490;-87
2021/12/16 08:33:04;;;;;;;168.85;59.38;;;6.60;99.90;;;;;;4929305;29;20077;-86
2021/12/16 08:35:31;;;;;;;208.35;68.47;;;6.50;99.90;;;;;;4905402;29;20070;-86
2021/12/16 08:38:00;;;;;;;224.20;67.72;;;6.50;99.90;;;;;;4923609;29;20038;-87
2021/12/16 08:40:27;;;;;;;182.32;54.35;;;6.60;99.90;;;;;;4891098;28;20498;-86
2021/12/16 08:42:56;;;;;;;160.50;49.05;;;6.60;99.90;;;;;;4904495;28;21908;-86
2021/12/16 08:48:43;;;;;;;161.07;47.75;;;6.70;99.90;;;;;;4941115;28;20122;-86
2021/12/16 08:51:10;;;;;;;138.80;44.05;;;6.70;99.90;;;;;;4927649;29;20119;-86
2021/12/16 08:53:44;;;;;;;147.15;45.05;;;6.80;99.90;;;;;;4924249;28;20073;-85
2021/12/16 08:56:17;;;;;;;157.48;48.78;;;6.90;99.90;;;;;;4923557;28;20048;-86
2021/12/16 08:58:46;;;;;;;154.23;46.70;;;6.90;99.90;;;;;;4911502;29;20035;-87
2021/12/16 09:01:20;;;;;;;149.70;48.33;;;7.00;99.90;;;;;;4922949;29;20047;-86
2021/12/16 09:03:48;;;;;;;187.30;48.85;;;7.00;99.90;;;;;;4900402;29;20047;-86
2021/12/16 09:06:15;;;;;;;176.75;49.67;;;7.10;99.90;;;;;;4923415;29;20067;-87
2021/12/16 09:08:41;;;;;;;201.05;51.95;;;7.20;99.90;;;;;;4921699;29;20414;-87
2021/12/16 09:11:13;;;;;;;206.68;53.30;;;7.20;99.90;;;;;;4891421;29;20042;-86
2021/12/16 09:13:41;;;;;;;221.63;54.25;;;7.30;99.90;;;;;;4887247;29;20131;-87
2021/12/16 09:16:13;;;;;;;200.05;54.05;;;7.40;99.90;;;;;;4906522;29;20035;-87
2021/12/16 09:18:42;;;;;;;190.48;53.55;;;7.50;99.90;;;;;;4907822;29;20470;-87
2021/12/16 09:21:26;;;;;;;210.07;54.70;;;7.60;99.90;;;;;;4927976;29;20368;-87
2021/12/16 09:23:56;;;;;;;174.73;51.20;;;7.70;99.90;;;;;;4924973;29;20082;-85
2021/12/16 09:26:23;;;;;;;161.88;50.22;;;7.70;99.90;;;;;;4913176;29;20491;-86
2021/12/16 09:28:55;;;;;;;186.48;51.60;;;7.80;99.90;;;;;;4908749;29;20494;-87
2021/12/16 09:31:28;;;;;;;186.77;52.33;;;7.80;99.90;;;;;;4923036;29;20055;-87
2021/12/16 09:34:04;;;;;;;176.15;49.17;;;7.90;99.90;;;;;;4895123;29;20080;-87
2021/12/16 09:36:30;;;;;;;174.30;48.50;;;7.80;99.90;;;;;;4901094;29;20343;-86
2021/12/16 09:38:57;;;;;;;166.27;49.45;;;7.90;99.90;;;;;;4896928;29;20494;-87
2021/12/16 09:41:24;;;;;;;167.68;47.95;;;7.90;99.90;;;;;;4911832;29;20400;-87
2021/12/16 09:43:55;;;;;;;158.77;47.58;;;7.90;99.90;;;;;;4893157;29;20539;-87
2021/12/16 09:46:28;;;;;;;165.75;47.00;;;7.90;99.90;;;;;;4922458;29;20119;-88
2021/12/16 09:48:56;;;;;;;;;;;7.90;99.90;;;;;;4911196;29;20036;-86
2021/12/16 09:51:25;;;;;;;182.68;45.47;;;8.00;99.90;;;;;;4911754;29;19935;-87
2021/12/16 09:53:58;;;;;;;182.35;46.95;;;8.00;99.90;;;;;;4907634;29;20065;-87
2021/12/16 09:56:26;;;;;;;185.65;46.58;;;8.00;99.90;;;;;;4925638;29;20046;-87
2021/12/16 09:58:53;;;;;;;162.93;45.30;;;8.00;99.90;;;;;;4919578;29;20039;-86
2021/12/16 10:01:26;;;;;;;176.25;45.22;;;8.00;99.90;;;;;;4924828;29;20094;-87
2021/12/16 10:03:57;;;;;;;201.43;43.08;;;8.00;99.90;;;;;;4917633;29;20123;-87
2021/12/16 10:06:29;;;;;;;205.18;43.85;;;8.10;99.90;;;;;;4911864;29;20390;-84
2021/12/16 10:08:55;;;;;;;219.90;44.55;;;8.10;99.90;;;;;;4930926;29;20052;-84
2021/12/16 10:11:21;;;;;;;145.15;42.10;;;8.10;99.90;;;;;;4892750;29;20050;-84
2021/12/16 10:14:45;;;;;;;188.98;43.95;;;8.10;99.90;;;;;;4919063;28;20035;-84
2021/12/16 10:19:21;;;;;;;240.73;44.28;;;8.20;99.90;;;;;;4931349;29;20035;-84
2021/12/16 10:21:51;;;;;;;215.65;45.30;;;8.20;99.90;;;;;;4926418;28;20048;-84
2021/12/16 10:24:31;;;;;;;138.73;41.00;;;8.20;99.90;;;;;;4925064;28;20049;-83
2021/12/16 10:27:09;;;;;;;134.65;39.22;;;8.30;99.90;;;;;;4931779;29;20077;-84
2021/12/16 10:29:45;;;;;;;143.75;38.92;;;8.40;99.90;;;;;;4933368;29;20055;-84
2021/12/16 10:32:40;;;;;;;104.22;37.28;;;8.50;99.90;;;;;;4937557;28;20074;-84
2021/12/16 10:35:38;;;;;;;149.43;39.58;;;8.50;99.90;;;;;;4933902;28;20039;-84
2021/12/16 10:38:07;;;;;;;140.20;39.92;;;8.50;99.90;;;;;;4935950;29;20039;-86
2021/12/16 10:40:43;;;;;;;116.47;37.60;;;8.50;99.90;;;;;;4925227;28;20031;-86
2021/12/16 10:43:26;;;;;;;143.77;40.00;;;8.50;99.90;;;;;;4937151;28;20118;-86
2021/12/16 10:46:00;;;;;;;;;;;8.60;99.90;;;;;;4944887;28;20497;-86
2021/12/16 10:48:34;;;;;;;93.45;36.80;;;8.50;99.90;;;;;;4926586;29;19929;-86
2021/12/16 10:51:03;;;;;;;153.80;38.83;;;8.50;99.90;;;;;;4950471;28;20046;-86
2021/12/16 10:54:10;;;;;;;96.43;35.22;;;8.50;99.90;;;;;;4934510;29;20043;-86
2021/12/16 10:56:45;;;;;;;110.35;37.92;;;8.50;99.90;;;;;;4912144;28;20074;-86
2021/12/16 10:59:19;;;;;;;114.63;37.55;;;8.60;99.90;;;;;;4943923;28;20050;-86
2021/12/16 11:02:02;;;;;;;148.40;40.97;;;8.60;99.90;;;;;;4920134;29;20445;-86
2021/12/16 11:04:37;;;;;;;;;;;8.60;99.90;;;;;;4918632;29;20046;-86
2021/12/16 11:07:03;;;;;;;123.28;39.67;;;8.60;99.90;;;;;;4933479;29;19932;-86
2021/12/16 11:09:34;;;;;;;142.55;40.75;;;8.70;99.90;;;;;;4936547;28;20043;-86
2021/12/16 11:12:40;;;;;;;146.15;39.47;;;8.70;99.90;;;;;;4919470;29;20421;-86
2021/12/16 11:15:11;;;;;;;124.00;37.55;;;8.70;99.90;;;;;;4883319;29;20086;-86
2021/12/16 11:18:15;;;;;;;144.80;39.25;;;8.80;99.90;;;;;;4902000;28;20058;-86
2021/12/16 11:20:59;;;;;;;140.27;37.35;;;8.80;99.90;;;;;;4927768;29;20500;-87
2021/12/16 11:23:35;;;;;;;119.32;36.88;;;8.80;99.90;;;;;;4933348;29;20494;-85
2021/12/16 11:26:07;;;;;;;121.22;36.88;;;8.80;99.90;;;;;;4928168;29;20035;-86
2021/12/16 11:28:44;;;;;;;125.57;37.00;;;8.80;99.90;;;;;;4931845;28;20035;-85
2021/12/16 11:31:13;;;;;;;115.10;34.50;;;8.90;99.90;;;;;;4935857;29;20035;-86
2021/12/16 11:33:43;;;;;;;106.90;34.90;;;8.80;99.90;;;;;;4931508;29;20050;-86
2021/12/16 11:36:17;;;;;;;121.88;35.78;;;8.80;99.90;;;;;;4930383;28;20992;-86
2021/12/16 11:38:48;;;;;;;103.80;34.17;;;8.90;99.90;;;;;;4942023;28;20579;-86
2021/12/16 11:41:38;;;;;;;100.03;33.70;;;8.90;99.90;;;;;;4913061;29;20059;-86
2021/12/16 11:44:20;;;;;;;93.25;31.77;;;8.90;99.90;;;;;;4941958;28;20505;-87
2021/12/16 11:46:55;;;;;;;79.27;30.73;;;8.90;99.90;;;;;;4929338;28;20043;-88
2021/12/16 11:49:40;;;;;;;83.07;31.45;;;8.90;99.90;;;;;;4920936;29;20068;-86
2021/12/16 11:52:27;;;;;;;99.78;33.80;;;8.90;99.90;;;;;;4917849;28;20071;-86
2021/12/16 11:55:04;;;;;;;81.85;30.45;;;9.00;99.90;;;;;;4905023;29;20047;-86
2021/12/16 11:57:35;;;;;;;90.93;32.22;;;9.00;99.90;;;;;;4937879;28;20076;-86
2021/12/16 12:00:09;;;;;;;87.97;33.20;;;9.00;99.90;;;;;;4926714;29;20091;-86
2021/12/16 12:02:50;;;;;;;97.05;33.80;;;9.00;99.90;;;;;;4919802;29;20094;-86
2021/12/16 12:05:40;;;;;;;99.10;34.47;;;9.00;99.90;;;;;;4927893;29;20050;-87
2021/12/16 12:08:28;;;;;;;82.30;30.83;;;8.90;99.90;;;;;;4930691;29;20171;-86
2021/12/16 12:11:18;;;;;;;81.82;30.67;;;8.90;99.90;;;;;;4919695;28;20260;-86
2021/12/16 12:13:50;;;;;;;81.70;31.15;;;9.00;99.90;;;;;;4928981;28;20777;-86
2021/12/16 12:16:33;;;;;;;75.60;31.23;;;9.00;99.90;;;;;;4920963;28;20074;-86
2021/12/16 12:19:22;;;;;;;74.35;29.45;;;9.10;99.90;;;;;;4901651;28;20042;-86
2021/12/16 12:22:02;;;;;;;83.95;29.77;;;9.00;99.90;;;;;;4912192;28;20042;-86
2021/12/16 12:24:33;;;;;;;76.10;29.63;;;9.10;99.90;;;;;;4924365;29;20375;-85
2021/12/16 12:27:12;;;;;;;94.45;31.23;;;9.10;99.90;;;;;;4912555;29;20035;-86
2021/12/16 12:29:50;;;;;;;84.65;31.27;;;9.10;99.90;;;;;;4926716;28;20043;-86
2021/12/16 12:32:42;;;;;;;77.88;29.90;;;9.10;99.90;;;;;;4919038;29;20332;-86
2021/12/16 12:35:20;;;;;;;82.50;29.10;;;9.10;99.90;;;;;;4930163;29;20043;-86
2021/12/16 12:37:56;;;;;;;81.47;30.65;;;9.10;99.90;;;;;;4917606;29;20658;-86
2021/12/16 12:40:24;;;;;;;93.25;30.25;;;9.10;99.90;;;;;;4923312;28;20093;-85
2021/12/16 12:42:53;;;;;;;69.15;27.58;;;9.10;99.90;;;;;;4922236;29;20040;-88
2021/12/16 12:45:25;;;;;;;73.75;25.75;;;9.10;99.90;;;;;;4927867;28;20507;-87
2021/12/16 12:47:55;;;;;;;78.00;26.58;;;9.10;99.90;;;;;;4912444;28;20042;-86
2021/12/16 12:50:25;;;;;;;82.07;27.13;;;9.10;99.90;;;;;;4923361;29;20117;-86
2021/12/16 12:52:54;;;;;;;75.13;27.02;;;9.20;99.90;;;;;;4906082;28;20039;-85
2021/12/16 12:55:26;;;;;;;69.72;26.38;;;9.20;99.90;;;;;;4926316;28;20126;-85
2021/12/16 12:58:11;;;;;;;75.18;26.02;;;9.10;99.90;;;;;;4926230;29;20047;-85
2021/12/16 13:00:51;;;;;;;72.53;25.63;;;9.20;99.90;;;;;;4920928;29;20074;-86
2021/12/16 13:03:36;;;;;;;76.18;26.08;;;9.10;99.90;;;;;;4913050;29;20035;-86
2021/12/16 13:06:05;;;;;;;71.22;26.27;;;9.10;99.90;;;;;;4930310;29;20035;-86
2021/12/16 13:08:35;;;;;;;74.93;25.90;;;9.10;99.90;;;;;;4921136;28;20042;-86
2021/12/16 13:11:11;;;;;;;74.55;23.88;;;9.10;99.90;;;;;;4946359;28;20035;-86
2021/12/16 13:13:58;;;;;;;60.63;22.80;;;9.20;99.90;;;;;;4918839;28;20129;-85
2021/12/16 13:28:04;;;;;;;73.13;23.98;;;9.10;99.90;;;;;;4915455;29;20062;-88
2021/12/16 13:30:50;;;;;;;70.18;24.23;;;9.10;99.90;;;;;;4932064;28;20035;-86
2021/12/16 13:33:27;;;;;;;64.72;23.77;;;9.10;99.90;;;;;;4917931;28;20593;-86
2021/12/16 13:36:03;;;;;;;60.40;22.30;;;9.10;99.90;;;;;;4910373;28;20050;-85
2021/12/16 13:38:40;;;;;;;63.42;22.00;;;9.10;99.90;;;;;;4921199;28;20103;-86
2021/12/16 13:41:14;;;;;;;60.72;21.25;;;9.10;99.90;;;;;;4935656;29;20031;-86
2021/12/16 13:44:07;;;;;;;68.13;23.60;;;9.10;99.90;;;;;;4915173;28;20039;-86
2021/12/16 14:02:26;;;;;;;116.03;26.90;;;9.00;99.90;;;;;;4929278;29;20043;-86
2021/12/16 14:05:16;;;;;;;91.30;25.77;;;9.00;99.90;;;;;;4929729;29;20501;-86
2021/12/16 14:07:55;;;;;;;100.05;28.48;;;9.00;99.90;;;;;;4934827;29;20130;-86
2021/12/16 14:10:43;;;;;;;90.45;25.15;;;9.00;99.90;;;;;;4920047;28;20722;-86
2021/12/16 14:16:38;;;;;;;80.60;24.70;;;9.00;99.90;;;;;;4935055;29;20073;-86
2021/12/16 14:25:07;;;;;;;78.15;24.17;;;8.90;99.90;;;;;;4954020;28;20050;-86
2021/12/16 14:34:27;;;;;;;77.00;23.50;;;8.90;99.90;;;;;;4931928;28;20148;-86
2021/12/16 14:45:15;;;;;;;66.13;23.50;;;9.00;99.90;;;;;;4945009;28;20043;-86
2021/12/16 14:50:28;;;;;;;61.30;21.73;;;8.90;99.90;;;;;;4947922;28;20134;-86
2021/12/16 14:52:56;;;;;;;66.70;22.80;;;9.00;99.90;;;;;;4917436;28;20074;-86
2021/12/16 14:55:22;;;;;;;61.67;21.92;;;9.00;99.90;;;;;;4926520;29;20409;-86
2021/12/16 14:57:52;;;;;;;60.60;21.40;;;8.90;99.90;;;;;;4907865;29;21611;-86
2021/12/16 15:00:49;;;;;;;67.20;22.58;;;9.00;99.90;;;;;;4897641;28;20031;-86
2021/12/16 15:03:20;;;;;;;59.17;21.13;;;8.90;99.90;;;;;;4929933;29;20054;-86
2021/12/16 15:05:50;;;;;;;58.45;21.40;;;8.90;99.90;;;;;;4914271;28;20036;-85
2021/12/16 15:08:27;;;;;;;66.28;23.55;;;8.90;99.90;;;;;;4928787;28;20038;-85
2021/12/16 15:10:56;;;;;;;64.25;22.38;;;8.90;99.90;;;;;;4911553;28;20039;-85
2021/12/16 15:13:33;;;;;;;76.80;24.67;;;8.90;99.90;;;;;;4916432;28;20083;-86
2021/12/16 15:16:27;;;;;;;69.68;23.70;;;8.90;99.90;;;;;;4914284;28;20051;-85
2021/12/16 15:36:41;;;;;;;132.07;27.17;;;8.70;99.90;;;;;;4922522;29;20493;-86
2021/12/16 15:39:03;;;;;;;129.05;27.73;;;8.70;99.90;;;;;;4908161;29;20122;-86
2021/12/16 15:44:12;;;;;;;118.90;25.70;;;8.70;99.90;;;;;;4912639;29;20039;-85
2021/12/16 15:46:39;;;;;;;58.40;20.33;;;8.60;99.90;;;;;;4912927;29;20393;-86
2021/12/16 15:49:06;;;;;;;58.15;17.48;;;8.60;99.90;;;;;;4932162;28;20368;-86
2021/12/16 15:51:33;;;;;;;80.32;18.70;;;8.50;99.90;;;;;;4921939;28;20062;-85
2021/12/16 15:54:02;;;;;;;81.43;18.55;;;8.50;99.90;;;;;;4906360;28;20130;-85
2021/12/16 15:56:32;;;;;;;93.82;19.33;;;8.50;99.90;;;;;;4906650;28;20070;-85
2021/12/16 15:59:09;;;;;;;74.13;21.27;;;8.50;99.90;;;;;;4931388;29;20407;-85
2021/12/16 16:01:42;;;;;;;107.15;23.27;;;8.40;99.90;;;;;;4933515;28;20130;-85
2021/12/16 16:04:22;;;;;;;102.75;26.70;;;8.40;99.90;;;;;;4937178;28;20040;-85
2021/12/16 16:06:54;;;;;;;118.20;25.73;;;8.40;99.90;;;;;;4921911;29;20040;-85
2021/12/16 16:09:20;;;;;;;110.73;25.97;;;8.40;99.90;;;;;;4914335;29;20098;-85
2021/12/16 16:11:52;;;;;;;149.85;27.30;;;8.40;99.90;;;;;;4894808;29;20082;-85
2021/12/16 16:14:19;;;;;;;79.97;21.90;;;8.40;99.90;;;;;;4933770;28;20043;-85
2021/12/16 16:16:52;;;;;;;84.20;21.10;;;8.40;99.90;;;;;;4917049;28;20047;-85
2021/12/16 16:19:27;;;;;;;167.07;24.23;;;8.40;99.90;;;;;;4926961;29;20130;-85
2021/12/16 16:21:57;;;;;;;160.43;26.23;;;8.40;99.90;;;;;;4913130;29;20035;-84
2021/12/16 16:24:34;;;;;;;88.97;23.83;;;8.40;99.90;;;;;;4928041;29;20379;-85
2021/12/16 16:27:03;;;;;;;125.70;24.55;;;8.40;99.90;;;;;;4914596;29;20043;-85
2021/12/16 16:29:32;;;;;;;144.23;24.83;;;8.40;99.90;;;;;;4917201;29;20364;-84
2021/12/16 16:32:02;;;;;;;96.03;24.23;;;8.40;99.90;;;;;;4949133;28;20047;-85
2021/12/16 16:34:43;;;;;;;82.20;22.67;;;8.40;99.90;;;;;;4920195;29;20431;-85
2021/12/16 16:37:10;;;;;;;76.75;23.67;;;8.30;99.90;;;;;;4931535;29;20039;-84
2021/12/16 16:39:49;;;;;;;202.32;29.00;;;8.40;99.90;;;;;;4917713;29;20044;-84
2021/12/16 16:42:16;;;;;;;106.10;25.33;;;8.40;99.90;;;;;;4913537;29;20040;-85
2021/12/16 16:44:52;;;;;;;78.28;23.98;;;8.40;99.90;;;;;;4911654;29;20094;-84
2021/12/16 16:47:31;;;;;;;122.10;26.80;;;8.40;99.90;;;;;;4916815;28;20035;-85
2021/12/16 16:49:58;;;;;;;109.90;25.83;;;8.40;99.90;;;;;;4900403;29;20039;-84
2021/12/16 16:52:28;;;;;;;219.85;29.38;;;8.40;99.90;;;;;;4915120;28;20047;-85
2021/12/16 16:55:15;;;;;;;102.40;26.20;;;8.40;99.90;;;;;;4911629;28;20043;-84
2021/12/16 16:58:14;;;;;;;79.38;24.35;;;8.40;99.90;;;;;;4926439;28;20046;-84
2021/12/16 17:00:50;;;;;;;108.00;25.40;;;8.40;99.90;;;;;;4903294;28;20039;-84
2021/12/16 17:03:26;;;;;;;85.75;24.58;;;8.40;99.90;;;;;;4916077;28;20747;-84
2021/12/16 17:05:57;;;;;;;161.23;26.65;;;8.40;99.90;;;;;;4927860;28;20058;-85
2021/12/16 17:08:41;;;;;;;137.98;26.33;;;8.40;99.90;;;;;;4937127;28;20126;-84
2021/12/16 17:11:18;;;;;;;79.75;24.75;;;8.40;99.90;;;;;;4925185;29;20043;-85
2021/12/16 17:13:59;;;;;;;197.52;30.67;;;8.40;99.90;;;;;;4897003;28;20137;-84
2021/12/16 17:19:16;;;;;;;151.18;30.88;;;8.40;99.90;;;;;;4919586;29;20039;-85
2021/12/16 17:21:48;;;;;;;121.85;27.85;;;8.40;99.90;;;;;;4923396;28;20058;-84
2021/12/16 17:24:22;;;;;;;109.78;29.30;;;8.40;99.90;;;;;;4917075;28;20035;-84
2021/12/16 17:26:59;;;;;;;106.78;28.80;;;8.40;99.90;;;;;;4929571;29;20039;-85
2021/12/16 17:29:30;;;;;;;145.38;30.40;;;8.40;99.90;;;;;;4899842;28;20039;-84
2021/12/16 17:32:07;;;;;;;214.77;35.22;;;8.40;99.90;;;;;;4920279;28;20557;-84
2021/12/16 17:34:41;;;;;;;158.88;33.00;;;8.40;99.90;;;;;;5118496;23;20057;-83
2021/12/16 17:37:28;;;;;;;160.52;33.47;;;8.40;99.90;;;;;;4999285;28;20037;-84
2021/12/16 17:40:07;;;;;;;85.03;29.55;;;8.40;99.90;;;;;;4991701;28;20048;-84
2021/12/16 17:42:41;;;;;;;123.75;33.28;;;8.40;99.90;;;;;;5014890;28;20037;-84
2021/12/16 17:45:45;;;;;;;87.65;28.58;;;8.40;99.90;;;;;;5004931;28;20044;-83
2021/12/16 17:48:16;;;;;;;249.98;38.47;;;8.40;99.90;;;;;;4999977;28;20128;-83
2021/12/16 17:50:43;;;;;;;116.50;33.88;;;8.40;99.90;;;;;;5004937;28;20055;-83
2021/12/16 17:53:10;;;;;;;150.18;35.40;;;8.40;99.90;;;;;;5009830;28;20124;-84
2021/12/16 17:55:46;;;;;;;116.55;32.10;;;8.40;99.90;;;;;;4995470;28;20045;-83
2021/12/16 17:58:15;;;;;;;124.53;34.30;;;8.40;99.90;;;;;;5004291;28;20049;-83
2021/12/16 18:00:52;;;;;;;213.57;36.15;;;8.40;99.90;;;;;;5012063;28;20037;-84
2021/12/16 18:03:28;;;;;;;85.70;28.38;;;8.50;99.90;;;;;;5014529;28;20025;-84
2021/12/16 18:06:01;;;;;;;170.25;32.67;;;8.40;99.90;;;;;;5021410;28;20037;-84
2021/12/16 18:08:41;;;;;;;97.25;30.45;;;8.50;99.90;;;;;;5004460;28;20037;-84
2021/12/16 18:11:10;;;;;;;136.88;30.02;;;8.50;99.90;;;;;;5004329;28;20037;-83
2021/12/16 18:13:41;;;;;;;104.00;31.40;;;8.40;99.90;;;;;;5003845;28;20500;-83
2021/12/16 18:16:13;;;;;;;111.68;29.60;;;8.50;99.90;;;;;;5007829;28;20136;-84
2021/12/16 18:18:39;;;;;;;91.97;32.95;;;8.40;99.90;;;;;;4980939;28;20594;-84
2021/12/16 18:21:05;;;;;;;99.00;35.38;;;8.50;99.90;;;;;;4979803;28;20042;-84
2021/12/16 18:23:31;;;;;;;108.68;37.33;;;8.50;99.90;;;;;;4983327;28;20076;-83
2021/12/16 18:26:03;;;;;;;139.50;39.08;;;8.50;99.90;;;;;;4996268;28;20068;-84
2021/12/16 18:28:39;;;;;;;154.47;29.80;;;8.50;99.90;;;;;;5010901;28;20196;-84
2021/12/16 18:31:09;;;;;;;75.10;25.45;;;8.40;99.90;;;;;;5010519;28;20045;-84
2021/12/16 18:33:41;;;;;;;92.60;25.17;;;8.50;99.90;;;;;;5014103;28;20318;-84
2021/12/16 18:36:17;;;;;;;80.00;25.67;;;8.50;99.90;;;;;;5017678;28;20523;-84
2021/12/16 18:38:47;;;;;;;88.38;25.75;;;8.40;99.90;;;;;;4995071;28;20124;-84
2021/12/16 18:41:19;;;;;;;81.18;24.35;;;8.40;99.90;;;;;;4997313;28;20056;-84
2021/12/16 18:43:48;;;;;;;89.05;22.25;;;8.50;99.90;;;;;;5025462;28;20060;-85
2021/12/16 18:46:16;;;;;;;99.55;26.65;;;8.40;99.90;;;;;;5006088;28;20037;-84
2021/12/16 18:51:42;;;;;;;113.35;26.42;;;8.50;99.90;;;;;;5006149;28;20395;-85
2021/12/16 18:56:52;;;;;;;126.40;29.63;;;8.50;99.90;;;;;;5017789;28;20446;-84
2021/12/16 18:59:18;;;;;;;149.50;32.22;;;8.50;99.90;;;;;;4996391;28;20132;-84
2021/12/16 19:01:49;;;;;;;152.30;28.40;;;8.50;99.90;;;;;;5012593;28;20038;-86
2021/12/16 19:04:18;;;;;;;136.07;28.20;;;8.40;99.90;;;;;;4996973;28;20041;-85
2021/12/16 19:06:45;;;;;;;171.80;28.83;;;8.50;99.90;;;;;;5012809;28;20128;-85
2021/12/16 19:09:15;;;;;;;106.13;27.67;;;8.50;99.90;;;;;;4984747;28;20044;-84
2021/12/16 19:11:52;;;;;;;89.57;25.23;;;8.50;99.90;;;;;;4998514;28;20060;-85
2021/12/16 19:14:27;;;;;;;142.45;30.60;;;8.50;99.90;;;;;;4997035;28;20119;-86
2021/12/16 19:16:53;;;;;;;137.35;30.40;;;8.50;99.90;;;;;;5008617;28;20518;-84
2021/12/16 19:19:19;;;;;;;143.13;31.55;;;8.50;99.90;;;;;;4989464;28;20029;-84
2021/12/16 19:21:45;;;;;;;137.18;36.58;;;8.50;99.90;;;;;;4989264;28;20041;-85
2021/12/16 19:24:13;;;;;;;142.23;36.25;;;8.50;99.90;;;;;;4996451;28;20290;-84
2021/12/16 19:26:39;;;;;;;231.68;43.47;;;8.50;99.90;;;;;;4998632;28;20117;-85
2021/12/16 19:29:06;;;;;;;155.30;36.70;;;8.50;99.90;;;;;;4971241;28;20052;-85
2021/12/16 19:31:33;;;;;;;130.40;30.83;;;8.50;99.90;;;;;;4983281;28;20226;-84
2021/12/16 19:34:04;;;;;;;124.88;29.70;;;8.40;99.90;;;;;;4971910;28;20029;-85
2021/12/16 19:36:30;;;;;;;167.73;33.63;;;8.40;99.90;;;;;;4971653;28;20041;-85
2021/12/16 19:38:56;;;;;;;243.43;38.08;;;8.50;99.90;;;;;;4975599;28;20034;-82
2021/12/16 19:41:26;;;;;;;224.93;35.80;;;8.40;99.90;;;;;;5006179;28;20334;-85
2021/12/16 19:43:54;;;;;;;149.95;32.80;;;8.50;99.90;;;;;;4995056;28;20068;-84
2021/12/16 19:46:20;;;;;;;134.98;32.17;;;8.40;99.90;;;;;;4977350;28;20049;-84
2021/12/16 19:48:48;;;;;;;188.95;35.35;;;8.40;99.90;;;;;;4967911;28;20033;-84
2021/12/16 19:51:18;;;;;;;202.93;34.97;;;8.40;99.90;;;;;;4981292;28;20064;-84
2021/12/16 19:53:45;;;;;;;246.95;38.90;;;8.40;99.90;;;;;;4991893;28;20040;-84
2021/12/16 19:56:11;;;;;;;175.30;35.63;;;8.40;99.90;;;;;;4976321;28;20481;-85
2021/12/16 19:58:39;;;;;;;130.38;32.17;;;8.40;99.90;;;;;;4995171;28;20492;-84
2021/12/16 20:01:19;;;;;;;128.15;34.30;;;8.40;99.90;;;;;;5001624;28;20033;-85
2021/12/16 20:03:53;;;;;;;143.07;38.58;;;8.40;99.90;;;;;;5005132;28;20485;-85
2021/12/16 20:06:23;;;;;;;148.10;38.72;;;8.40;99.90;;;;;;4988608;28;20128;-86
2021/12/16 20:08:50;;;;;;;179.45;38.80;;;8.40;99.90;;;;;;4994332;28;20038;-84
2021/12/16 20:11:31;;;;;;;213.80;40.25;;;8.40;99.90;;;;;;5002889;28;20045;-84
2021/12/16 20:13:59;;;;;;;163.73;34.60;;;8.40;99.90;;;;;;4990253;28;20063;-84
2021/12/16 20:16:29;;;;;;;101.78;31.83;;;8.40;99.90;;;;;;4982356;28;20064;-84
2021/12/16 20:18:57;;;;;;;205.95;35.67;;;8.40;99.90;;;;;;5007260;28;20273;-84
2021/12/16 20:21:25;;;;;;;105.85;31.30;;;8.40;99.90;;;;;;5008628;28;20136;-84
2021/12/16 20:23:53;;;;;;;127.53;32.28;;;8.40;99.90;;;;;;5001307;28;20037;-85
2021/12/16 20:26:25;;;;;;;125.15;31.67;;;8.40;99.90;;;;;;4986769;28;20124;-85
2021/12/16 20:28:57;;;;;;;203.05;35.38;;;8.40;99.90;;;;;;5003289;28;20110;-84
2021/12/16 20:31:30;;;;;;;176.52;33.47;;;8.40;99.90;;;;;;4991993;28;20038;-83
2021/12/16 20:34:07;;;;;;;114.75;28.60;;;8.40;99.90;;;;;;5010902;28;20037;-85
2021/12/16 20:36:37;;;;;;;114.55;29.35;;;8.40;99.90;;;;;;4993549;28;20081;-84
2021/12/16 20:39:17;;;;;;;173.80;33.08;;;8.40;99.90;;;;;;4991824;28;20095;-84
2021/12/16 20:41:48;;;;;;;201.32;36.78;;;8.40;99.90;;;;;;5008063;28;20037;-85
2021/12/16 20:44:20;;;;;;;215.57;35.45;;;8.40;99.90;;;;;;5000869;28;20040;-83
2021/12/16 20:46:49;;;;;;;249.70;36.33;;;8.40;99.90;;;;;;5011092;28;20041;-85
2021/12/16 20:49:22;;;;;;;130.35;31.35;;;8.40;99.90;;;;;;5006401;28;20072;-85
2021/12/16 20:51:52;;;;;;;;;;;8.40;99.90;;;;;;4992151;28;20822;-84
2021/12/16 20:54:21;;;;;;;93.65;28.33;;;8.40;99.90;;;;;;5024806;28;19963;-84
2021/12/16 20:56:48;;;;;;;167.02;30.58;;;8.40;99.90;;;;;;4997611;28;20041;-85
2021/12/16 20:59:18;;;;;;;178.57;31.20;;;8.40;99.90;;;;;;5013547;28;20043;-84
2021/12/16 21:01:50;;;;;;;129.18;28.95;;;8.40;99.90;;;;;;5008063;28;20041;-85
2021/12/16 21:04:18;;;;;;;102.15;27.52;;;8.40;99.90;;;;;;4997367;28;20147;-85
2021/12/16 21:06:45;;;;;;;178.98;29.55;;;8.40;99.90;;;;;;5008343;28;20048;-85
2021/12/16 21:09:14;;;;;;;177.80;29.90;;;8.40;99.90;;;;;;4999343;28;20123;-84
2021/12/16 21:11:41;;;;;;;116.40;25.48;;;8.40;99.90;;;;;;5013338;28;20048;-85
2021/12/16 21:14:07;;;;;;;135.00;25.23;;;8.40;99.90;;;;;;5000969;28;20041;-85
2021/12/16 21:16:34;;;;;;;159.15;29.75;;;8.40;99.90;;;;;;4994624;28;20043;-85
2021/12/16 21:19:00;;;;;;;119.93;25.48;;;8.40;99.90;;;;;;4922110;28;20057;-84
2021/12/16 21:21:26;;;;;;;164.10;30.85;;;8.40;99.90;;;;;;4958751;28;20089;-84
2021/12/16 21:23:52;;;;;;;92.10;30.30;;;8.40;99.90;;;;;;4953803;28;20068;-84
2021/12/16 21:26:17;;;;;;;108.30;34.15;;;8.40;99.90;;;;;;4972606;28;20041;-85
2021/12/16 21:28:43;;;;;;;91.35;30.90;;;8.40;99.90;;;;;;4980696;28;20133;-85
2021/12/16 21:31:11;;;;;;;156.80;30.30;;;8.40;99.90;;;;;;4961132;28;20053;-84
2021/12/16 21:33:53;;;;;;;111.53;27.38;;;8.40;99.90;;;;;;4956622;28;20084;-84
2021/12/16 21:36:20;;;;;;;118.40;25.50;;;8.40;99.90;;;;;;4964550;28;20038;-85
2021/12/16 21:38:47;;;;;;;113.53;25.92;;;8.40;99.90;;;;;;4951828;28;20038;-85
2021/12/16 21:41:15;;;;;;;135.25;26.55;;;8.40;99.90;;;;;;4969579;28;20100;-84
2021/12/16 21:43:42;;;;;;;144.35;29.80;;;8.40;99.90;;;;;;4963755;28;20069;-85
2021/12/16 21:46:10;;;;;;;131.38;29.33;;;8.40;99.90;;;;;;4967605;28;20485;-85
2021/12/16 21:48:38;;;;;;;102.93;26.27;;;8.40;99.90;;;;;;4967790;28;20038;-84
2021/12/16 21:51:04;;;;;;;137.68;28.08;;;8.40;99.90;;;;;;4971714;28;20102;-84
2021/12/16 21:53:32;;;;;;;158.65;27.85;;;8.40;99.90;;;;;;4937069;28;20038;-84
2021/12/16 21:55:59;;;;;;;90.75;25.45;;;8.40;99.90;;;;;;4982522;28;20434;-85
2021/12/16 21:58:28;;;;;;;95.90;23.58;;;8.40;99.90;;;;;;4954663;28;20034;-85
2021/12/16 22:00:56;;;;;;;87.65;24.63;;;8.40;99.90;;;;;;4974963;28;20037;-84
2021/12/16 22:03:27;;;;;;;82.25;24.38;;;8.40;99.90;;;;;;4948562;28;20053;-85
2021/12/16 22:05:54;;;;;;;89.82;25.50;;;8.40;99.90;;;;;;4982819;28;20034;-85
2021/12/16 22:08:21;;;;;;;117.22;23.27;;;8.40;99.90;;;;;;4959159;28;20065;-85
2021/12/16 22:10:49;;;;;;;109.72;22.38;;;8.40;99.90;;;;;;4985181;28;20041;-85
2021/12/16 22:13:15;;;;;;;62.13;19.23;;;8.40;99.90;;;;;;4953889;28;20052;-84
2021/12/16 22:15:43;;;;;;;138.02;21.80;;;8.40;99.90;;;;;;4962324;28;20109;-85
2021/12/16 22:18:13;;;;;;;63.38;19.58;;;8.40;99.90;;;;;;4987045;28;20046;-85
2021/12/16 22:20:42;;;;;;;63.67;19.58;;;8.40;99.90;;;;;;4991414;28;20516;-85
2021/12/16 22:23:13;;;;;;;112.72;19.95;;;8.40;99.90;;;;;;4966954;28;20049;-84
2021/12/16 22:25:39;;;;;;;99.03;19.70;;;8.40;99.90;;;;;;4965130;28;20177;-85
2021/12/16 22:28:06;;;;;;;53.10;17.35;;;8.40;99.90;;;;;;4940086;28;20695;-83
2021/12/16 22:30:33;;;;;;;44.85;15.85;;;8.40;99.90;;;;;;4973534;28;20046;-84
2021/12/16 22:33:00;;;;;;;51.03;17.35;;;8.40;99.90;;;;;;4969161;28;20038;-84